createdAt,value
2023-03-29T06:53:34.973Z,1.90
2023-03-29T07:06:20.531Z,2.40
2023-03-29T07:11:18.217Z,2.60
2023-03-29T07:34:17.955Z,3.00
2023-03-29T07:39:13.178Z,3.10
2023-03-29T07:50:18.940Z,3.70
2023-03-29T07:55:14.556Z,3.80
2023-03-29T08:00:25.050Z,4.00
2023-03-29T08:05:43.463Z,4.20
2023-03-29T08:10:39.956Z,4.30
2023-03-29T08:21:39.050Z,4.70
2023-03-29T08:26:33.506Z,4.80
2023-03-29T08:36:31.040Z,5.10
2023-03-29T08:41:40.036Z,5.20
2023-03-29T08:52:06.932Z,5.20
2023-03-29T08:57:12.596Z,5.40
2023-03-29T09:07:14.409Z,5.60
2023-03-29T09:12:26.474Z,5.70
2023-03-29T09:17:32.300Z,5.80
2023-03-29T09:22:41.805Z,5.90
2023-03-29T09:27:47.153Z,6.00
2023-03-29T09:32:54.322Z,6.10
2023-03-29T09:52:55.558Z,6.40
2023-03-29T09:57:51.632Z,6.40
2023-03-29T10:02:54.214Z,6.50
2023-03-29T10:07:59.443Z,6.70
2023-03-29T10:12:55.983Z,6.90
2023-03-29T10:17:50.532Z,6.90
2023-03-29T10:22:52.642Z,7.00
2023-03-29T10:27:50.563Z,7.20
2023-03-29T10:32:44.874Z,7.20
2023-03-29T10:37:42.329Z,7.30
2023-03-29T10:42:35.963Z,7.30
2023-03-29T10:47:34.916Z,7.30
2023-03-29T10:52:30.593Z,7.40
2023-03-29T10:57:31.128Z,7.50
2023-03-29T11:03:04.411Z,7.70
2023-03-29T11:08:15.274Z,7.80
2023-03-29T11:13:15.587Z,8.10
2023-03-29T11:18:31.814Z,8.50
2023-03-29T11:23:40.513Z,8.90
2023-03-29T11:28:42.490Z,9.20
2023-03-29T11:33:49.307Z,9.40
2023-03-29T11:38:58.332Z,9.50
2023-03-29T11:43:58.134Z,9.60
2023-03-29T11:48:58.139Z,9.60
2023-03-29T11:54:00.427Z,9.80
2023-03-29T11:59:01.846Z,10.80
2023-03-29T12:03:58.280Z,12.10
2023-03-29T12:08:58.826Z,13.30
2023-03-29T12:13:58.667Z,13.90
2023-03-29T12:18:56.512Z,13.80
2023-03-29T12:23:51.884Z,13.40
2023-03-29T12:29:11.924Z,12.90
2023-03-29T12:34:35.527Z,12.70
2023-03-29T12:39:49.979Z,12.80
2023-03-29T12:45:32.066Z,12.50
2023-03-29T12:50:29.749Z,12.10
2023-03-29T12:55:31.331Z,12.00
2023-03-29T13:00:35.808Z,11.80
2023-03-29T13:05:32.405Z,11.50
2023-03-29T13:10:41.315Z,11.40
2023-03-29T13:15:38.775Z,11.60
2023-03-29T13:20:45.662Z,12.00
2023-03-29T13:25:51.490Z,12.30
2023-03-29T13:30:59.105Z,12.80
2023-03-29T13:36:01.177Z,13.10
2023-03-29T13:41:05.135Z,13.30
2023-03-29T13:46:22.542Z,13.50
2023-03-29T13:51:29.514Z,13.20
2023-03-29T13:56:28.320Z,13.00
2023-03-29T14:01:29.475Z,13.10
2023-03-29T14:06:31.560Z,13.70
2023-03-29T14:11:27.189Z,14.60
2023-03-29T14:16:21.050Z,15.50
2023-03-29T14:21:16.548Z,16.10
2023-03-29T14:26:15.443Z,15.60
2023-03-29T14:31:19.404Z,14.40
2023-03-29T14:36:19.630Z,13.50
2023-03-29T14:41:13.390Z,12.90
2023-03-29T14:46:08.066Z,12.50
2023-03-29T14:51:05.460Z,12.10
2023-03-29T14:56:02.678Z,11.90
2023-03-29T15:00:57.031Z,11.70
2023-03-29T15:05:53.394Z,11.50
2023-03-29T15:10:47.252Z,11.10
2023-03-29T15:15:42.645Z,10.90
2023-03-29T15:20:39.957Z,10.70
2023-03-29T15:25:38.573Z,10.60
2023-03-29T15:30:40.154Z,10.50
2023-03-29T15:35:35.659Z,10.40
2023-03-29T15:40:29.413Z,10.40
2023-03-29T15:45:25.953Z,10.30
2023-03-29T15:50:19.854Z,10.20
2023-03-29T15:55:15.197Z,10.20
2023-03-29T16:00:15.583Z,10.10
2023-03-29T16:05:10.701Z,10.10
2023-03-29T16:10:04.935Z,9.90
2023-03-29T16:15:00.459Z,9.90
2023-03-29T16:19:54.239Z,9.80
2023-03-29T16:24:49.374Z,9.80
2023-03-29T16:29:43.234Z,9.60
2023-03-29T16:34:39.001Z,9.60
2023-03-29T16:39:32.593Z,9.50
2023-03-29T16:44:28.046Z,9.40
2023-03-29T16:49:21.740Z,9.40
2023-03-29T16:54:19.049Z,9.50
2023-03-29T16:59:12.538Z,9.40
2023-03-29T17:04:06.696Z,9.40
2023-03-29T17:09:00.804Z,9.30
2023-03-29T17:13:56.270Z,9.20
2023-03-29T17:18:49.869Z,9.10
2023-03-29T17:23:43.711Z,8.90
2023-03-29T17:28:37.459Z,8.70
2023-03-29T17:33:32.875Z,8.50
2023-03-29T17:38:27.525Z,8.40
2023-03-29T17:43:21.199Z,8.20
2023-03-29T17:48:14.763Z,8.10
2023-03-29T17:53:10.469Z,7.90
2023-03-29T17:58:04.197Z,7.70
